Terminal Aerodrome Forecast
Issued by NWS

Home | Current Version | Previous Version | Text Only | Print | Product List | Glossary On
Versions: 1 2 3 4 5 6 7 8 9 10 11 12 13 14 15
000
FTUS43 KICT 190602 AAA
TAFRSL
TAF AMD
KRSL 190602Z 1906/2006 18017KT P6SM OVC004
     FM190800 15017KT P6SM OVC002
     FM191600 15007KT 4SM BR OVC007
     FM192000 16009KT P6SM OVC008=

USA.gov is the U.S. government's official web portal to all federal, state and local government web resources and services.